Time;durP1;ratioP1;P1;durP2;ratioP2;P2;SDS_P1;SDS_P2;PMS_P1;PMS_P2;Temp;Humidity;BMP_temperature;BMP_pressure;BME280_temperature;BME280_humidity;BME280_pressure;Samples;Min_cycle;Max_cycle;Signal;HPM_P1;HPM_P2
2023/08/08 00:00:52;;;;;;;2.75;1.25;;;11.20;99.90;;;;;;5022145;28;20427;-62
2023/08/08 00:03:19;;;;;;;6.28;1.88;;;11.10;99.90;;;;;;5024262;28;20044;-61
2023/08/08 00:05:46;;;;;;;1.50;1.10;;;11.00;99.90;;;;;;5031018;28;20052;-61
2023/08/08 00:08:13;;;;;;;4.45;1.65;;;11.00;99.90;;;;;;5029601;28;20050;-62
2023/08/08 00:10:39;;;;;;;6.15;1.58;;;10.90;99.90;;;;;;5029693;28;20034;-62
2023/08/08 00:13:06;;;;;;;2.33;1.65;;;10.90;99.90;;;;;;5028033;28;20152;-62
2023/08/08 00:15:33;;;;;;;2.95;1.50;;;10.80;99.90;;;;;;5019355;28;20052;-62
2023/08/08 00:18:06;;;;;;;3.70;1.67;;;10.80;99.90;;;;;;5028932;28;20972;-60
2023/08/08 00:20:33;;;;;;;6.85;1.75;;;10.80;99.90;;;;;;5030744;28;20037;-62
2023/08/08 00:23:00;;;;;;;1.90;1.45;;;10.80;99.90;;;;;;5029176;28;20041;-62
2023/08/08 00:25:31;;;;;;;3.33;1.48;;;10.80;99.90;;;;;;5022141;28;20037;-62
2023/08/08 00:27:58;;;;;;;2.20;1.40;;;10.90;99.90;;;;;;5028969;28;20045;-62
2023/08/08 00:30:25;;;;;;;2.17;1.10;;;10.90;99.90;;;;;;5021945;28;20521;-62
2023/08/08 00:32:52;;;;;;;6.30;1.80;;;10.90;99.90;;;;;;5028935;28;20053;-62
2023/08/08 00:35:19;;;;;;;1.88;1.42;;;10.90;99.90;;;;;;5025286;28;20116;-62
2023/08/08 00:37:45;;;;;;;1.63;1.10;;;10.90;99.90;;;;;;5034856;28;20041;-62
2023/08/08 00:40:12;;;;;;;1.83;1.20;;;10.90;99.90;;;;;;5025783;28;20042;-61
2023/08/08 00:42:39;;;;;;;4.90;1.08;;;10.90;99.90;;;;;;5025052;28;20638;-61
2023/08/08 00:45:06;;;;;;;2.55;1.05;;;10.80;99.90;;;;;;5026009;28;20041;-62
2023/08/08 00:47:33;;;;;;;;;;;10.80;99.90;;;;;;5022928;28;20375;-61
2023/08/08 00:50:03;;;;;;;2.87;1.50;;;10.80;99.90;;;;;;5025624;28;19921;-62
2023/08/08 00:52:31;;;;;;;3.30;1.40;;;10.80;99.90;;;;;;5029411;28;20433;-62
2023/08/08 00:54:58;;;;;;;;;;;10.80;99.90;;;;;;5030299;28;20144;-61
2023/08/08 00:57:26;;;;;;;1.83;1.25;;;10.80;99.90;;;;;;5033480;28;19956;-62
2023/08/08 00:59:53;;;;;;;2.63;1.38;;;10.90;99.90;;;;;;5030718;28;20033;-60
2023/08/08 01:02:20;;;;;;;2.42;1.35;;;10.80;99.90;;;;;;5023722;28;20050;-62
2023/08/08 01:04:47;;;;;;;4.60;1.00;;;10.80;99.90;;;;;;5024050;28;20087;-62
2023/08/08 01:07:51;;;;;;;1.90;1.30;;;10.80;99.90;;;;;;5021490;28;20411;-61
2023/08/08 01:10:35;;;;;;;4.25;1.75;;;10.80;99.90;;;;;;5030261;28;20526;-62
2023/08/08 01:13:17;;;;;;;2.30;1.17;;;10.70;99.90;;;;;;5033508;28;20493;-62
2023/08/08 01:15:46;;;;;;;4.60;1.42;;;10.70;99.90;;;;;;5032489;28;20045;-62
2023/08/08 01:18:14;;;;;;;4.68;1.40;;;10.70;99.90;;;;;;5030193;28;20502;-62
2023/08/08 01:20:43;;;;;;;4.30;1.40;;;10.70;99.90;;;;;;5030439;28;20087;-60
2023/08/08 01:23:28;;;;;;;2.35;1.40;;;10.70;99.90;;;;;;5031130;28;20045;-61
2023/08/08 01:25:57;;;;;;;5.15;1.52;;;10.70;99.90;;;;;;5030392;28;20048;-61
2023/08/08 01:28:26;;;;;;;3.03;2.13;;;10.70;99.90;;;;;;5031570;28;20096;-60
2023/08/08 01:30:53;;;;;;;;;;;10.70;99.90;;;;;;5014297;28;20704;-62
2023/08/08 01:33:20;;;;;;;2.67;1.83;;;10.60;99.90;;;;;;5028988;28;19927;-62
2023/08/08 01:35:53;;;;;;;6.15;1.67;;;10.60;99.90;;;;;;5032317;28;20034;-61
2023/08/08 01:38:27;;;;;;;1.98;1.50;;;10.50;99.90;;;;;;5032904;28;20044;-62
2023/08/08 01:40:56;;;;;;;2.03;1.30;;;10.60;99.90;;;;;;5031441;28;20038;-62
2023/08/08 01:43:23;;;;;;;2.10;1.08;;;10.60;99.90;;;;;;5031068;28;20394;-61
2023/08/08 01:45:52;;;;;;;2.17;0.98;;;10.60;99.90;;;;;;5031107;28;20038;-61
2023/08/08 01:48:20;;;;;;;2.33;1.02;;;10.50;99.90;;;;;;5026877;28;20046;-61
2023/08/08 01:50:48;;;;;;;1.65;1.10;;;10.50;99.90;;;;;;5031007;28;20113;-62
2023/08/08 01:53:15;;;;;;;1.90;1.23;;;10.40;99.90;;;;;;5030071;28;20096;-61
2023/08/08 01:55:42;;;;;;;1.45;1.10;;;10.40;99.90;;;;;;5031284;28;20049;-60
2023/08/08 01:58:09;;;;;;;3.83;1.02;;;10.40;99.90;;;;;;5030665;28;20042;-62
2023/08/08 02:00:36;;;;;;;1.60;1.10;;;10.40;99.90;;;;;;5026833;28;20034;-62
2023/08/08 02:03:03;;;;;;;3.97;1.30;;;10.30;99.90;;;;;;5031848;28;20037;-62
2023/08/08 02:05:31;;;;;;;2.92;1.17;;;10.20;99.90;;;;;;5023082;28;20048;-61
2023/08/08 02:07:58;;;;;;;;;;;10.30;99.90;;;;;;5046914;28;20505;-61
2023/08/08 02:10:25;;;;;;;1.80;1.30;;;10.30;99.90;;;;;;5031136;28;19955;-60
2023/08/08 02:12:51;;;;;;;2.38;1.45;;;10.30;99.90;;;;;;5031368;28;20041;-61
2023/08/08 02:15:18;;;;;;;2.38;1.80;;;10.30;99.90;;;;;;5030828;28;20566;-61
2023/08/08 02:17:46;;;;;;;;;;;10.30;99.90;;;;;;5030978;28;20045;-62
2023/08/08 02:20:13;;;;;;;2.78;2.08;;;10.30;99.90;;;;;;5014663;28;19925;-61
2023/08/08 02:22:40;;;;;;;5.60;2.08;;;10.30;99.90;;;;;;5028622;28;20052;-61
2023/08/08 02:25:09;;;;;;;2.78;1.85;;;10.30;99.90;;;;;;5030059;28;20140;-60
2023/08/08 02:27:35;;;;;;;2.00;1.60;;;10.20;99.90;;;;;;5029526;28;20497;-61
2023/08/08 02:30:03;;;;;;;3.55;1.70;;;10.20;99.90;;;;;;5025932;28;20057;-61
2023/08/08 02:32:29;;;;;;;;;;;10.10;99.90;;;;;;5030580;28;20048;-61
2023/08/08 02:34:56;;;;;;;2.10;1.15;;;10.10;99.90;;;;;;5023207;28;19921;-61
2023/08/08 02:37:27;;;;;;;2.40;1.15;;;10.10;99.90;;;;;;5029377;28;20068;-61
2023/08/08 02:39:54;;;;;;;5.03;1.42;;;10.00;99.90;;;;;;5026359;28;20410;-62
2023/08/08 02:42:21;;;;;;;2.22;1.45;;;9.90;99.90;;;;;;5031354;28;20084;-61
2023/08/08 02:44:47;;;;;;;3.83;1.05;;;9.90;99.90;;;;;;5030835;28;20040;-61
2023/08/08 02:47:14;;;;;;;2.72;1.30;;;9.80;99.90;;;;;;5029452;28;20491;-62
2023/08/08 02:49:41;;;;;;;1.60;1.02;;;9.80;99.90;;;;;;5029026;28;20045;-62
2023/08/08 02:52:12;;;;;;;3.08;1.00;;;9.70;99.90;;;;;;5029856;28;20506;-62
2023/08/08 02:54:39;;;;;;;2.50;1.30;;;9.70;99.90;;;;;;5029342;28;20049;-62
2023/08/08 02:57:06;;;;;;;1.92;0.90;;;9.60;99.90;;;;;;5028644;28;20037;-62
2023/08/08 02:59:33;;;;;;;4.07;1.33;;;9.50;99.90;;;;;;5029524;28;20410;-61
2023/08/08 03:02:04;;;;;;;1.45;0.93;;;9.50;99.90;;;;;;5029051;28;20434;-62
2023/08/08 03:04:35;;;;;;;1.52;0.90;;;9.50;99.90;;;;;;5029366;28;20064;-61
2023/08/08 03:07:04;;;;;;;3.50;1.30;;;9.40;99.90;;;;;;5025675;28;20063;-60
2023/08/08 03:09:33;;;;;;;1.83;1.00;;;9.30;99.90;;;;;;5022569;28;20581;-61
2023/08/08 03:12:01;;;;;;;1.67;1.00;;;9.30;99.90;;;;;;5029009;28;20037;-62
2023/08/08 03:14:29;;;;;;;4.20;1.40;;;9.30;99.90;;;;;;5026443;28;20073;-60
2023/08/08 03:16:58;;;;;;;3.08;1.20;;;9.30;99.90;;;;;;5026859;28;20041;-62
2023/08/08 03:19:28;;;;;;;1.88;1.23;;;9.30;99.90;;;;;;5027126;28;20052;-61
2023/08/08 03:21:57;;;;;;;1.80;1.10;;;9.30;99.90;;;;;;5028420;28;20049;-62
2023/08/08 03:24:25;;;;;;;2.50;1.15;;;9.30;99.90;;;;;;5028505;28;20398;-61
2023/08/08 03:26:52;;;;;;;6.38;2.00;;;9.30;99.90;;;;;;5005321;28;20048;-61
2023/08/08 03:29:19;;;;;;;3.63;1.50;;;9.20;99.90;;;;;;5026517;28;20511;-61
2023/08/08 03:31:48;;;;;;;3.92;1.40;;;9.20;99.90;;;;;;5028814;28;20042;-60
2023/08/08 03:34:15;;;;;;;3.88;1.35;;;9.10;99.90;;;;;;5028483;28;20072;-61
2023/08/08 03:36:43;;;;;;;;;;;9.10;99.90;;;;;;5028758;28;20153;-61
2023/08/08 03:39:10;;;;;;;1.77;1.10;;;9.10;99.90;;;;;;5022432;28;19986;-61
2023/08/08 03:41:37;;;;;;;5.55;0.93;;;9.20;99.90;;;;;;5022919;28;20046;-62
2023/08/08 03:44:04;;;;;;;1.52;1.10;;;9.20;99.90;;;;;;5028532;28;20049;-61
2023/08/08 03:46:31;;;;;;;3.08;1.15;;;9.10;99.90;;;;;;5034436;28;20144;-60
2023/08/08 03:48:58;;;;;;;5.32;1.38;;;9.00;99.90;;;;;;5028066;28;20073;-61
2023/08/08 03:51:25;;;;;;;2.83;1.00;;;9.00;99.90;;;;;;5030035;28;20171;-60
2023/08/08 03:53:52;;;;;;;2.15;1.10;;;9.00;99.90;;;;;;5029107;28;20129;-61
2023/08/08 03:56:19;;;;;;;3.60;1.35;;;9.00;99.90;;;;;;5023984;28;20053;-60
2023/08/08 03:58:47;;;;;;;1.35;1.10;;;9.00;99.90;;;;;;5025807;28;20084;-61
2023/08/08 04:01:14;;;;;;;3.58;1.20;;;9.00;99.90;;;;;;5028366;28;20494;-61
2023/08/08 04:03:40;;;;;;;3.83;1.50;;;9.00;99.90;;;;;;5021634;28;20077;-60
2023/08/08 04:06:07;;;;;;;1.83;1.17;;;9.10;99.90;;;;;;5025821;28;20426;-62
2023/08/08 04:08:34;;;;;;;3.45;1.13;;;9.10;99.90;;;;;;5034006;28;20053;-62
2023/08/08 04:11:01;;;;;;;1.35;1.00;;;9.10;99.90;;;;;;5020658;28;20056;-62
2023/08/08 04:13:28;;;;;;;8.07;4.40;;;9.10;99.90;;;;;;5025144;28;20045;-62
2023/08/08 04:15:55;;;;;;;2.45;1.70;;;9.20;99.90;;;;;;5029565;28;20049;-62
2023/08/08 04:18:22;;;;;;;2.10;1.50;;;9.10;99.90;;;;;;5015661;28;20049;-62
2023/08/08 04:20:48;;;;;;;2.42;1.35;;;9.20;99.90;;;;;;5030244;28;20038;-62
2023/08/08 04:23:15;;;;;;;2.65;1.10;;;9.20;99.90;;;;;;5015302;28;20048;-61
2023/08/08 04:25:42;;;;;;;1.95;1.30;;;9.20;99.90;;;;;;5029193;28;20046;-60
2023/08/08 04:28:09;;;;;;;3.08;1.30;;;9.20;99.90;;;;;;5032235;28;20788;-61
2023/08/08 04:30:35;;;;;;;1.85;1.45;;;9.30;99.90;;;;;;5034380;28;20038;-62
2023/08/08 04:33:03;;;;;;;2.75;1.40;;;9.30;99.90;;;;;;5025260;28;20124;-61
2023/08/08 04:35:29;;;;;;;2.75;1.30;;;9.30;99.90;;;;;;5032461;28;20041;-62
2023/08/08 04:37:56;;;;;;;3.75;1.65;;;9.30;99.90;;;;;;5033542;28;20046;-62
2023/08/08 04:40:23;;;;;;;2.20;1.48;;;9.40;99.90;;;;;;5036968;28;20487;-61
2023/08/08 04:42:50;;;;;;;1.85;1.40;;;9.40;99.90;;;;;;5031106;28;20112;-59
2023/08/08 04:45:17;;;;;;;4.18;1.55;;;9.30;99.90;;;;;;5033473;28;20049;-61
2023/08/08 04:47:44;;;;;;;3.80;1.40;;;9.40;99.90;;;;;;5033872;28;20049;-61
2023/08/08 04:50:11;;;;;;;2.85;1.15;;;9.40;99.90;;;;;;5025265;28;20510;-61
2023/08/08 04:52:38;;;;;;;2.35;1.10;;;9.50;99.90;;;;;;5033971;28;20045;-59
2023/08/08 04:55:05;;;;;;;2.35;1.30;;;9.50;99.90;;;;;;5033146;28;20578;-60
2023/08/08 04:57:32;;;;;;;4.43;1.10;;;9.60;99.90;;;;;;5033688;28;20038;-61
2023/08/08 05:00:04;;;;;;;3.35;1.42;;;9.60;99.90;;;;;;5026600;28;20046;-61
2023/08/08 05:02:31;;;;;;;3.40;1.08;;;9.60;99.90;;;;;;5028251;28;20041;-62
2023/08/08 05:04:58;;;;;;;3.63;1.30;;;9.70;99.90;;;;;;5030825;28;20087;-61
2023/08/08 05:07:25;;;;;;;1.98;1.23;;;9.70;99.90;;;;;;5033541;28;20049;-61
2023/08/08 05:09:51;;;;;;;2.70;1.35;;;9.80;99.90;;;;;;5030847;28;20056;-62
2023/08/08 05:12:18;;;;;;;2.58;1.42;;;9.80;99.90;;;;;;5032682;28;20434;-61
2023/08/08 05:14:45;;;;;;;3.85;1.30;;;9.80;99.90;;;;;;5015958;28;20053;-62
2023/08/08 05:17:12;;;;;;;3.50;1.30;;;9.80;99.90;;;;;;5029183;28;20045;-61
2023/08/08 05:19:39;;;;;;;3.58;1.27;;;9.90;99.90;;;;;;5023737;28;20125;-62
2023/08/08 05:22:06;;;;;;;1.58;0.85;;;10.00;99.90;;;;;;5028392;28;20057;-62
2023/08/08 05:24:32;;;;;;;2.60;1.20;;;10.20;99.90;;;;;;5030099;28;20051;-61
2023/08/08 05:26:59;;;;;;;3.30;1.23;;;10.30;99.90;;;;;;5031178;28;20052;-62
2023/08/08 05:29:26;;;;;;;2.33;1.08;;;10.30;99.90;;;;;;5031025;28;20048;-61
2023/08/08 05:31:53;;;;;;;1.90;0.80;;;10.40;99.90;;;;;;5031420;28;20483;-61
2023/08/08 05:34:19;;;;;;;1.63;1.20;;;10.50;99.90;;;;;;5032168;28;20038;-62
2023/08/08 05:36:46;;;;;;;2.55;1.65;;;10.50;99.90;;;;;;5032093;28;20038;-61
2023/08/08 05:39:14;;;;;;;4.80;1.77;;;10.50;99.90;;;;;;5025981;28;20104;-60
2023/08/08 05:41:41;;;;;;;3.38;1.60;;;10.50;99.90;;;;;;5029859;28;20403;-61
2023/08/08 05:44:08;;;;;;;2.85;1.63;;;10.40;99.90;;;;;;5029930;28;20088;-61
2023/08/08 05:46:34;;;;;;;4.38;1.73;;;10.40;99.90;;;;;;5027077;28;20061;-61
2023/08/08 05:49:01;;;;;;;3.53;1.77;;;10.40;99.90;;;;;;5031187;28;20037;-61
2023/08/08 05:51:28;;;;;;;3.85;1.73;;;10.30;99.90;;;;;;5031556;28;20658;-61
2023/08/08 05:53:55;;;;;;;3.13;1.83;;;10.30;99.90;;;;;;5031837;28;20112;-61
2023/08/08 05:56:23;;;;;;;3.53;1.67;;;10.30;99.90;;;;;;5030964;28;20053;-61
2023/08/08 05:58:50;;;;;;;6.78;1.90;;;10.30;99.90;;;;;;5032255;28;20049;-61
2023/08/08 06:01:17;;;;;;;2.60;1.60;;;10.30;99.90;;;;;;5031862;28;20051;-62
2023/08/08 06:03:44;;;;;;;5.53;2.03;;;10.30;99.90;;;;;;5018069;28;20112;-61
2023/08/08 06:06:10;;;;;;;11.93;2.42;;;10.40;99.90;;;;;;5032668;28;20088;-61
2023/08/08 06:08:37;;;;;;;18.52;3.17;;;10.40;99.90;;;;;;5029979;28;20049;-59
2023/08/08 06:11:04;;;;;;;9.18;2.25;;;10.50;99.90;;;;;;5031167;28;20129;-61
2023/08/08 06:13:31;;;;;;;1.98;1.50;;;10.60;99.90;;;;;;5031459;28;20038;-60
2023/08/08 06:15:57;;;;;;;2.45;1.55;;;10.70;99.90;;;;;;5032076;28;20395;-61
2023/08/08 06:18:24;;;;;;;5.75;1.73;;;10.80;99.90;;;;;;5030299;28;20072;-62
2023/08/08 06:20:51;;;;;;;1.45;1.20;;;11.00;99.90;;;;;;5023550;28;20037;-61
2023/08/08 06:23:18;;;;;;;2.92;1.63;;;11.00;99.90;;;;;;5028998;28;20573;-62
2023/08/08 06:25:45;;;;;;;4.18;1.85;;;11.10;99.90;;;;;;5031636;28;20401;-61
2023/08/08 06:28:11;;;;;;;2.80;1.70;;;11.20;99.90;;;;;;5031221;28;20083;-62
2023/08/08 06:30:38;;;;;;;3.80;1.42;;;11.30;99.90;;;;;;5032280;28;20046;-61
2023/08/08 06:33:05;;;;;;;8.23;2.03;;;11.40;99.90;;;;;;5019719;28;20053;-61
2023/08/08 06:35:32;;;;;;;4.95;1.90;;;11.50;99.90;;;;;;5021219;28;20041;-61
2023/08/08 06:37:59;;;;;;;8.20;1.55;;;11.60;99.90;;;;;;5030507;28;20509;-61
2023/08/08 06:40:25;;;;;;;9.15;1.80;;;11.70;99.90;;;;;;5031664;28;20052;-61
2023/08/08 06:42:52;;;;;;;4.70;1.42;;;11.90;99.90;;;;;;5030790;28;20041;-61
2023/08/08 06:45:19;;;;;;;3.60;1.30;;;12.10;99.90;;;;;;5023106;28;20507;-61
2023/08/08 06:47:46;;;;;;;3.20;1.40;;;12.20;99.90;;;;;;5028950;28;20549;-60
2023/08/08 06:50:13;;;;;;;2.90;1.40;;;12.40;99.90;;;;;;5023051;28;20052;-61
2023/08/08 06:52:40;;;;;;;3.45;1.40;;;12.70;99.90;;;;;;5031638;28;20052;-61
2023/08/08 06:55:07;;;;;;;2.38;1.30;;;12.90;99.90;;;;;;5030592;28;20045;-61
2023/08/08 06:57:37;;;;;;;2.40;1.30;;;13.10;99.90;;;;;;5031638;28;20075;-62
2023/08/08 07:00:05;;;;;;;3.47;1.40;;;13.20;99.90;;;;;;5024674;28;20033;-61
2023/08/08 07:02:32;;;;;;;4.72;1.38;;;13.20;99.90;;;;;;5031348;28;20394;-61
2023/08/08 07:04:59;;;;;;;2.42;1.15;;;13.20;99.90;;;;;;5028102;28;20120;-62
2023/08/08 07:07:25;;;;;;;3.40;1.70;;;13.30;99.90;;;;;;5021890;28;20038;-60
2023/08/08 07:09:52;;;;;;;5.10;1.20;;;13.40;99.90;;;;;;5018831;28;20101;-61
2023/08/08 07:12:19;;;;;;;5.65;1.27;;;13.40;99.90;;;;;;5031255;28;20037;-60
2023/08/08 07:14:46;;;;;;;4.25;1.30;;;13.40;99.90;;;;;;5019423;28;20076;-61
2023/08/08 07:17:14;;;;;;;1.98;1.10;;;13.40;99.90;;;;;;5031595;28;20045;-60
2023/08/08 07:19:41;;;;;;;2.45;1.20;;;13.40;99.90;;;;;;5030511;28;20041;-60
2023/08/08 07:22:08;;;;;;;1.42;1.10;;;13.50;99.90;;;;;;5027557;28;21079;-62
2023/08/08 07:24:35;;;;;;;4.00;1.20;;;13.80;99.90;;;;;;5017733;28;20470;-62
2023/08/08 07:27:02;;;;;;;4.45;1.17;;;13.80;99.90;;;;;;5025395;28;20049;-62
2023/08/08 07:29:28;;;;;;;2.00;0.90;;;14.00;99.90;;;;;;5031060;28;20037;-61
2023/08/08 07:31:55;;;;;;;3.00;1.20;;;14.10;99.90;;;;;;5021757;28;20049;-62
2023/08/08 07:34:22;;;;;;;4.90;1.20;;;14.20;99.90;;;;;;5030641;28;20045;-62
2023/08/08 07:36:49;;;;;;;1.85;1.20;;;14.30;99.90;;;;;;5030198;28;20046;-62
2023/08/08 07:39:16;;;;;;;;;;;14.40;99.90;;;;;;5016506;28;20034;-62
2023/08/08 07:41:43;;;;;;;4.20;1.20;;;14.50;99.90;;;;;;5023686;28;20469;-59
2023/08/08 07:44:10;;;;;;;3.30;1.23;;;14.70;99.90;;;;;;5022687;28;20045;-62
2023/08/08 07:46:36;;;;;;;2.53;1.20;;;14.90;99.90;;;;;;5024366;28;20042;-62
2023/08/08 07:49:04;;;;;;;1.33;0.98;;;14.80;99.90;;;;;;5030854;28;20136;-62
2023/08/08 07:51:31;;;;;;;1.77;1.15;;;14.90;99.90;;;;;;5029758;28;20033;-62
2023/08/08 07:53:59;;;;;;;1.45;0.90;;;14.90;99.90;;;;;;5018371;28;20048;-62
2023/08/08 07:56:26;;;;;;;1.70;1.00;;;15.00;99.90;;;;;;5029654;28;20662;-62
2023/08/08 07:58:52;;;;;;;2.50;1.20;;;14.90;99.90;;;;;;5030200;28;20398;-59
2023/08/08 08:01:19;;;;;;;1.42;1.00;;;15.00;99.90;;;;;;5025788;28;20402;-62
2023/08/08 08:03:46;;;;;;;2.08;1.10;;;15.10;99.90;;;;;;5034569;28;20041;-62
2023/08/08 08:06:13;;;;;;;2.67;0.90;;;15.10;99.90;;;;;;5025703;28;20155;-61
2023/08/08 08:08:40;;;;;;;2.28;1.27;;;15.10;99.90;;;;;;5024188;28;20042;-62
2023/08/08 08:11:07;;;;;;;3.67;0.90;;;15.20;99.90;;;;;;5027765;28;20056;-60
2023/08/08 08:13:33;;;;;;;2.03;1.00;;;15.30;99.90;;;;;;5027886;28;20042;-62
2023/08/08 08:16:00;;;;;;;2.50;0.90;;;15.40;99.90;;;;;;5032294;28;20482;-62
2023/08/08 08:18:28;;;;;;;2.08;1.05;;;15.60;99.90;;;;;;5030121;28;20052;-62
2023/08/08 08:20:56;;;;;;;1.95;1.00;;;15.90;99.90;;;;;;5033965;28;20132;-62
2023/08/08 08:23:22;;;;;;;1.83;1.13;;;15.80;99.90;;;;;;5032976;28;20411;-62
2023/08/08 08:25:50;;;;;;;2.25;1.33;;;16.00;99.90;;;;;;5033497;28;20076;-62
2023/08/08 08:28:17;;;;;;;1.50;1.10;;;16.20;99.90;;;;;;5019148;28;20124;-62
2023/08/08 08:30:44;;;;;;;;;;;16.30;99.90;;;;;;5031568;28;20103;-61
2023/08/08 08:33:11;;;;;;;1.65;1.05;;;16.40;99.90;;;;;;5031576;28;20144;-62
2023/08/08 08:35:38;;;;;;;2.67;1.25;;;16.30;99.90;;;;;;5033582;28;20041;-62
2023/08/08 08:38:04;;;;;;;2.00;1.10;;;16.50;99.90;;;;;;5033365;28;20038;-62
2023/08/08 08:40:36;;;;;;;2.47;0.82;;;16.60;99.90;;;;;;5027611;28;20487;-62
2023/08/08 08:43:04;;;;;;;3.92;1.20;;;16.70;99.90;;;;;;5031195;28;20079;-62
2023/08/08 08:45:31;;;;;;;3.40;1.08;;;16.60;99.90;;;;;;5029511;28;20483;-61
2023/08/08 08:48:00;;;;;;;3.42;1.05;;;16.60;99.90;;;;;;5032308;28;20099;-62
2023/08/08 08:50:28;;;;;;;4.05;0.80;;;16.70;99.90;;;;;;5026882;28;20095;-62
2023/08/08 08:52:56;;;;;;;5.25;1.27;;;16.80;99.90;;;;;;5032666;28;20040;-62
2023/08/08 08:55:23;;;;;;;3.03;1.02;;;16.90;99.90;;;;;;5027748;28;20045;-63
2023/08/08 08:57:50;;;;;;;2.45;1.20;;;17.00;99.90;;;;;;5033533;28;20414;-62
2023/08/08 09:00:17;;;;;;;1.23;0.90;;;17.20;99.90;;;;;;5020489;28;20490;-62
2023/08/08 09:02:46;;;;;;;2.30;1.13;;;17.30;99.90;;;;;;5027536;28;20045;-62
2023/08/08 09:05:15;;;;;;;4.32;1.20;;;17.50;99.90;;;;;;5024443;28;20080;-62
2023/08/08 09:07:41;;;;;;;2.72;1.00;;;17.80;99.90;;;;;;5033581;28;20051;-61
2023/08/08 09:10:08;;;;;;;3.13;1.08;;;17.80;99.90;;;;;;5029494;28;20047;-62
2023/08/08 09:12:36;;;;;;;1.33;0.93;;;17.90;99.90;;;;;;5020128;28;20113;-62
2023/08/08 09:15:04;;;;;;;2.00;0.95;;;18.00;99.90;;;;;;5031769;28;20399;-61
2023/08/08 09:17:31;;;;;;;2.42;0.88;;;18.10;99.90;;;;;;5033465;28;20049;-62
2023/08/08 09:20:13;;;;;;;4.53;1.00;;;18.20;99.90;;;;;;5026757;28;20121;-62
2023/08/08 09:22:40;;;;;;;;;;;18.20;99.90;;;;;;5033376;28;20038;-62
2023/08/08 09:25:07;;;;;;;1.55;1.10;;;18.40;99.90;;;;;;5027886;28;20378;-62
2023/08/08 09:27:35;;;;;;;1.67;0.88;;;18.60;99.90;;;;;;5021178;28;20026;-62
2023/08/08 09:30:03;;;;;;;2.05;0.90;;;18.80;99.90;;;;;;5029425;28;20478;-62
2023/08/08 09:32:32;;;;;;;1.40;0.90;;;18.80;99.90;;;;;;5032885;28;20121;-62
2023/08/08 09:35:00;;;;;;;3.05;1.20;;;19.00;99.90;;;;;;5032339;28;20679;-62
2023/08/08 09:37:28;;;;;;;;;;;19.10;99.90;;;;;;5027410;28;20053;-62
2023/08/08 09:39:59;;;;;;;3.10;0.85;;;19.10;99.90;;;;;;5030592;28;19921;-62
2023/08/08 09:42:27;;;;;;;1.15;0.80;;;19.30;99.90;;;;;;5016835;28;20044;-63
2023/08/08 09:44:55;;;;;;;1.20;0.73;;;19.40;99.90;;;;;;5032888;28;20104;-62
2023/08/08 09:47:23;;;;;;;1.55;1.15;;;19.40;99.80;;;;;;5025866;28;20518;-62
2023/08/08 09:49:50;;;;;;;2.67;1.30;;;19.40;99.90;;;;;;5032901;28;20046;-62
2023/08/08 09:52:18;;;;;;;2.22;0.70;;;19.30;99.90;;;;;;5031453;28;20056;-62
2023/08/08 09:54:47;;;;;;;1.40;0.90;;;19.40;99.90;;;;;;5027294;28;20046;-62
2023/08/08 09:57:14;;;;;;;6.07;1.02;;;19.40;99.90;;;;;;5030670;28;20053;-62
2023/08/08 09:59:41;;;;;;;2.33;0.88;;;19.50;99.70;;;;;;5032686;28;20046;-62
2023/08/08 10:02:13;;;;;;;;;;;19.60;99.80;;;;;;5023562;28;20068;-62
2023/08/08 10:04:40;;;;;;;1.08;0.80;;;19.80;99.50;;;;;;5020469;28;20535;-63
2023/08/08 10:07:07;;;;;;;1.25;0.90;;;19.90;99.90;;;;;;5024208;28;20045;-62
2023/08/08 10:09:34;;;;;;;1.58;1.20;;;19.90;99.90;;;;;;5025749;28;20037;-62
2023/08/08 10:12:01;;;;;;;7.15;1.30;;;19.90;99.90;;;;;;5031253;28;20041;-62
2023/08/08 10:14:34;;;;;;;3.53;1.13;;;19.90;99.90;;;;;;5025019;28;20030;-62
2023/08/08 10:17:03;;;;;;;2.65;1.42;;;19.90;99.90;;;;;;5031266;28;20064;-62
2023/08/08 10:19:30;;;;;;;5.32;1.30;;;20.10;99.90;;;;;;5032268;28;20045;-63
2023/08/08 10:22:03;;;;;;;4.22;1.10;;;20.10;99.90;;;;;;5030099;28;20052;-62
2023/08/08 10:24:35;;;;;;;6.78;1.30;;;20.10;99.90;;;;;;5024784;28;20036;-62
2023/08/08 10:27:04;;;;;;;2.50;1.20;;;20.10;99.90;;;;;;5030894;28;20057;-62
2023/08/08 10:29:33;;;;;;;2.00;1.05;;;20.10;99.90;;;;;;5026189;28;20049;-63
2023/08/08 10:32:04;;;;;;;1.35;0.90;;;20.00;99.90;;;;;;5030866;28;20041;-62
2023/08/08 10:34:46;;;;;;;3.72;1.17;;;20.00;99.90;;;;;;5031667;28;20056;-63
2023/08/08 10:37:15;;;;;;;2.20;0.90;;;20.20;99.90;;;;;;5025452;28;20049;-63
2023/08/08 10:39:52;;;;;;;2.85;0.98;;;20.10;99.90;;;;;;5031865;28;20091;-62
2023/08/08 10:42:20;;;;;;;1.80;1.10;;;20.20;99.90;;;;;;5028866;28;20744;-62
2023/08/08 10:44:58;;;;;;;2.22;1.02;;;20.20;97.50;;;;;;5031611;28;20042;-63
2023/08/08 10:47:26;;;;;;;;;;;20.50;99.10;;;;;;5021064;28;20075;-62
2023/08/08 10:50:03;;;;;;;2.88;1.10;;;20.70;99.90;;;;;;5031171;28;20422;-62
2023/08/08 10:52:30;;;;;;;1.75;1.10;;;20.80;99.90;;;;;;5019213;28;20070;-62
2023/08/08 10:54:57;;;;;;;3.50;1.52;;;20.80;99.90;;;;;;5029627;28;20275;-62
2023/08/08 10:57:25;;;;;;;1.50;1.00;;;20.60;99.70;;;;;;5023002;28;20060;-63
2023/08/08 10:59:52;;;;;;;1.02;0.88;;;20.60;98.90;;;;;;5030973;28;20034;-62
2023/08/08 11:02:20;;;;;;;3.80;1.25;;;20.60;99.90;;;;;;5029682;28;20041;-62
2023/08/08 11:04:49;;;;;;;1.77;0.88;;;20.50;99.90;;;;;;5023124;28;20048;-62
2023/08/08 11:07:16;;;;;;;4.03;1.17;;;20.50;99.90;;;;;;5031632;28;20048;-62
2023/08/08 11:09:43;;;;;;;3.42;1.25;;;20.50;99.90;;;;;;5028926;28;20045;-63
2023/08/08 11:12:16;;;;;;;4.28;1.02;;;20.60;99.90;;;;;;5031105;28;20045;-62
2023/08/08 11:14:43;;;;;;;4.57;1.15;;;20.80;99.90;;;;;;5021845;28;20487;-62
2023/08/08 11:17:11;;;;;;;2.75;1.17;;;20.80;99.40;;;;;;5027255;28;20494;-62
2023/08/08 11:19:41;;;;;;;2.38;1.13;;;20.90;99.90;;;;;;5030668;28;20033;-62
2023/08/08 11:22:13;;;;;;;2.47;0.90;;;20.80;98.70;;;;;;5030659;28;20453;-62
2023/08/08 11:24:40;;;;;;;2.15;1.25;;;20.90;98.20;;;;;;5022911;28;20501;-63
2023/08/08 11:27:07;;;;;;;1.52;0.85;;;20.90;99.60;;;;;;5030973;28;20510;-61
2023/08/08 11:29:34;;;;;;;4.10;1.30;;;20.90;98.40;;;;;;5030293;28;20076;-63
2023/08/08 11:32:02;;;;;;;1.55;1.17;;;20.80;98.60;;;;;;5029448;28;20474;-62
2023/08/08 11:34:31;;;;;;;2.67;1.10;;;20.70;99.80;;;;;;5022275;28;20401;-62
2023/08/08 11:37:00;;;;;;;4.28;1.17;;;20.50;98.40;;;;;;5030567;28;20506;-62
2023/08/08 11:39:28;;;;;;;2.30;1.00;;;20.40;98.80;;;;;;5022054;28;20402;-62
2023/08/08 11:41:56;;;;;;;3.22;1.00;;;20.40;97.60;;;;;;5030596;28;20104;-62
2023/08/08 11:44:25;;;;;;;2.35;1.35;;;20.50;98.50;;;;;;5029250;28;20045;-61
2023/08/08 11:46:52;;;;;;;;;;;20.70;99.40;;;;;;5030791;28;20040;-62
2023/08/08 11:49:19;;;;;;;1.17;0.90;;;20.90;99.70;;;;;;5025508;28;19921;-62
2023/08/08 11:51:46;;;;;;;1.30;1.10;;;21.00;98.90;;;;;;5030008;28;20042;-62
2023/08/08 11:54:14;;;;;;;2.88;1.20;;;21.00;98.70;;;;;;5028879;28;20045;-61
2023/08/08 11:56:41;;;;;;;1.92;1.10;;;20.90;97.50;;;;;;5026813;28;20042;-62
2023/08/08 11:59:09;;;;;;;1.60;1.08;;;21.00;99.10;;;;;;5031040;28;20494;-62
2023/08/08 12:01:35;;;;;;;1.40;0.98;;;20.90;98.00;;;;;;5021706;28;20483;-62
2023/08/08 12:04:07;;;;;;;1.30;1.10;;;21.00;99.80;;;;;;5024429;28;20049;-62
2023/08/08 12:06:39;;;;;;;5.88;0.98;;;21.00;98.40;;;;;;5029741;28;20060;-62
2023/08/08 12:09:06;;;;;;;4.10;1.00;;;20.90;98.20;;;;;;5030889;28;20037;-62
2023/08/08 12:11:39;;;;;;;3.33;1.27;;;20.90;98.00;;;;;;5026314;28;20041;-61
2023/08/08 12:14:09;;;;;;;4.13;1.40;;;21.00;98.60;;;;;;5025809;28;20037;-62
2023/08/08 12:16:39;;;;;;;1.83;1.00;;;21.00;99.70;;;;;;5029870;28;20070;-62
2023/08/08 12:19:10;;;;;;;1.00;0.90;;;21.10;99.30;;;;;;5030731;28;20049;-61
2023/08/08 12:21:37;;;;;;;1.40;1.00;;;21.20;97.20;;;;;;5028580;28;20056;-62
2023/08/08 12:24:04;;;;;;;1.63;1.00;;;21.20;97.40;;;;;;5030207;28;20044;-62
2023/08/08 12:26:31;;;;;;;1.75;1.00;;;21.20;97.20;;;;;;5029219;28;20453;-61
2023/08/08 12:28:58;;;;;;;1.52;1.10;;;21.00;99.00;;;;;;5030465;28;20048;-59
2023/08/08 12:31:25;;;;;;;2.13;1.17;;;20.90;97.40;;;;;;5028969;28;20033;-62
2023/08/08 12:33:52;;;;;;;3.75;1.17;;;20.90;97.00;;;;;;5030035;28;20426;-62
2023/08/08 12:36:21;;;;;;;1.10;0.90;;;21.00;97.60;;;;;;5030218;28;20041;-62
2023/08/08 12:38:48;;;;;;;2.15;1.20;;;21.00;96.70;;;;;;5017392;28;20044;-62
2023/08/08 12:41:14;;;;;;;1.70;1.17;;;21.20;98.30;;;;;;5025899;28;20047;-63
2023/08/08 12:43:41;;;;;;;4.25;1.10;;;21.40;97.80;;;;;;5029292;28;20045;-61
2023/08/08 12:46:08;;;;;;;2.10;1.10;;;21.40;97.50;;;;;;5030650;28;20091;-63
2023/08/08 12:48:35;;;;;;;0.95;0.90;;;21.60;98.30;;;;;;5030026;28;20049;-63
2023/08/08 12:51:03;;;;;;;1.98;1.13;;;21.70;97.50;;;;;;5034001;28;20498;-63
2023/08/08 12:53:30;;;;;;;1.92;1.13;;;21.70;97.00;;;;;;5024577;28;20046;-62
2023/08/08 12:55:56;;;;;;;1.75;1.25;;;21.70;97.00;;;;;;5034060;28;20042;-62